sensor_id;sensor_type;location;lat;lon;timestamp;P1;durP1;ratioP1;P2;durP2;ratioP2
18905;SDS011;9585;51.018;4.282;2024-03-06T00:02:22;9.80;;;7.10;;
18905;SDS011;9585;51.018;4.282;2024-03-06T00:04:50;7.70;;;6.90;;
18905;SDS011;9585;51.018;4.282;2024-03-06T00:07:17;8.52;;;7.15;;
18905;SDS011;9585;51.018;4.282;2024-03-06T00:09:47;9.75;;;7.68;;
18905;SDS011;9585;51.018;4.282;2024-03-06T00:12:14;9.63;;;6.70;;
18905;SDS011;9585;51.018;4.282;2024-03-06T00:14:43;7.50;;;6.47;;
18905;SDS011;9585;51.018;4.282;2024-03-06T00:17:11;7.00;;;5.78;;
18905;SDS011;9585;51.018;4.282;2024-03-06T00:19:38;8.38;;;6.25;;
18905;SDS011;9585;51.018;4.282;2024-03-06T00:22:06;6.18;;;5.35;;
18905;SDS011;9585;51.018;4.282;2024-03-06T00:24:35;6.00;;;5.40;;
18905;SDS011;9585;51.018;4.282;2024-03-06T00:27:05;5.20;;;4.70;;
18905;SDS011;9585;51.018;4.282;2024-03-06T00:29:33;5.40;;;4.85;;
18905;SDS011;9585;51.018;4.282;2024-03-06T00:32:03;5.80;;;5.18;;
18905;SDS011;9585;51.018;4.282;2024-03-06T00:34:31;5.57;;;5.03;;
18905;SDS011;9585;51.018;4.282;2024-03-06T00:36:59;5.15;;;4.65;;
18905;SDS011;9585;51.018;4.282;2024-03-06T00:39:27;6.68;;;5.50;;
18905;SDS011;9585;51.018;4.282;2024-03-06T00:41:55;7.22;;;6.15;;
18905;SDS011;9585;51.018;4.282;2024-03-06T00:44:24;6.20;;;5.60;;
18905;SDS011;9585;51.018;4.282;2024-03-06T00:46:52;5.65;;;5.15;;
18905;SDS011;9585;51.018;4.282;2024-03-06T00:49:19;6.93;;;6.20;;
18905;SDS011;9585;51.018;4.282;2024-03-06T00:51:47;6.20;;;5.60;;
18905;SDS011;9585;51.018;4.282;2024-03-06T00:54:15;7.20;;;5.30;;
18905;SDS011;9585;51.018;4.282;2024-03-06T00:56:43;5.85;;;5.25;;
18905;SDS011;9585;51.018;4.282;2024-03-06T00:59:10;5.57;;;4.97;;
18905;SDS011;9585;51.018;4.282;2024-03-06T01:01:40;5.60;;;5.10;;
18905;SDS011;9585;51.018;4.282;2024-03-06T01:04:07;6.35;;;5.10;;
18905;SDS011;9585;51.018;4.282;2024-03-06T01:06:35;5.72;;;5.10;;
18905;SDS011;9585;51.018;4.282;2024-03-06T01:09:03;5.65;;;5.07;;
18905;SDS011;9585;51.018;4.282;2024-03-06T01:11:30;5.57;;;4.93;;
18905;SDS011;9585;51.018;4.282;2024-03-06T01:13:58;5.50;;;4.97;;
18905;SDS011;9585;51.018;4.282;2024-03-06T01:16:27;5.75;;;4.90;;
18905;SDS011;9585;51.018;4.282;2024-03-06T01:18:56;6.78;;;4.95;;
18905;SDS011;9585;51.018;4.282;2024-03-06T01:21:24;6.32;;;5.35;;
18905;SDS011;9585;51.018;4.282;2024-03-06T01:23:52;5.68;;;4.90;;
18905;SDS011;9585;51.018;4.282;2024-03-06T01:26:20;5.57;;;5.07;;
18905;SDS011;9585;51.018;4.282;2024-03-06T01:28:48;6.13;;;5.38;;
18905;SDS011;9585;51.018;4.282;2024-03-06T01:31:16;5.90;;;5.28;;
18905;SDS011;9585;51.018;4.282;2024-03-06T01:33:43;6.20;;;5.18;;
18905;SDS011;9585;51.018;4.282;2024-03-06T01:36:13;6.90;;;5.65;;
18905;SDS011;9585;51.018;4.282;2024-03-06T01:38:40;6.93;;;5.63;;
18905;SDS011;9585;51.018;4.282;2024-03-06T01:41:10;7.90;;;5.88;;
18905;SDS011;9585;51.018;4.282;2024-03-06T01:43:38;6.88;;;5.85;;
18905;SDS011;9585;51.018;4.282;2024-03-06T01:46:06;6.93;;;5.63;;
18905;SDS011;9585;51.018;4.282;2024-03-06T01:48:33;6.68;;;5.72;;
18905;SDS011;9585;51.018;4.282;2024-03-06T01:51:02;6.72;;;6.03;;
18905;SDS011;9585;51.018;4.282;2024-03-06T01:53:32;7.25;;;6.25;;
18905;SDS011;9585;51.018;4.282;2024-03-06T01:56:01;7.43;;;6.40;;
18905;SDS011;9585;51.018;4.282;2024-03-06T01:58:30;6.70;;;5.95;;
18905;SDS011;9585;51.018;4.282;2024-03-06T02:01:00;9.35;;;6.50;;
18905;SDS011;9585;51.018;4.282;2024-03-06T02:03:29;7.20;;;5.82;;
18905;SDS011;9585;51.018;4.282;2024-03-06T02:05:59;6.65;;;5.75;;
18905;SDS011;9585;51.018;4.282;2024-03-06T02:08:29;6.30;;;5.40;;
18905;SDS011;9585;51.018;4.282;2024-03-06T02:10:59;6.93;;;5.32;;
18905;SDS011;9585;51.018;4.282;2024-03-06T02:13:28;6.63;;;5.82;;
18905;SDS011;9585;51.018;4.282;2024-03-06T02:15:55;7.38;;;6.05;;
18905;SDS011;9585;51.018;4.282;2024-03-06T02:18:23;8.38;;;5.72;;
18905;SDS011;9585;51.018;4.282;2024-03-06T02:20:57;6.20;;;5.60;;
18905;SDS011;9585;51.018;4.282;2024-03-06T02:23:25;7.97;;;6.18;;
18905;SDS011;9585;51.018;4.282;2024-03-06T02:25:53;6.43;;;5.75;;
18905;SDS011;9585;51.018;4.282;2024-03-06T02:28:20;6.55;;;5.80;;
18905;SDS011;9585;51.018;4.282;2024-03-06T02:30:49;7.40;;;5.97;;
18905;SDS011;9585;51.018;4.282;2024-03-06T02:33:17;7.00;;;6.03;;
18905;SDS011;9585;51.018;4.282;2024-03-06T02:35:45;6.45;;;5.70;;
18905;SDS011;9585;51.018;4.282;2024-03-06T02:38:14;7.57;;;5.95;;
18905;SDS011;9585;51.018;4.282;2024-03-06T02:40:43;6.60;;;5.75;;
18905;SDS011;9585;51.018;4.282;2024-03-06T02:43:10;6.88;;;5.40;;
18905;SDS011;9585;51.018;4.282;2024-03-06T02:45:38;6.85;;;6.03;;
18905;SDS011;9585;51.018;4.282;2024-03-06T02:48:06;8.70;;;6.10;;
18905;SDS011;9585;51.018;4.282;2024-03-06T02:50:34;7.13;;;6.43;;
18905;SDS011;9585;51.018;4.282;2024-03-06T02:53:02;8.50;;;6.78;;
18905;SDS011;9585;51.018;4.282;2024-03-06T02:55:31;7.78;;;6.20;;
18905;SDS011;9585;51.018;4.282;2024-03-06T02:58:01;6.75;;;6.00;;
18905;SDS011;9585;51.018;4.282;2024-03-06T03:00:29;6.43;;;5.30;;
18905;SDS011;9585;51.018;4.282;2024-03-06T03:02:57;5.50;;;4.82;;
18905;SDS011;9585;51.018;4.282;2024-03-06T03:05:25;6.18;;;5.05;;
18905;SDS011;9585;51.018;4.282;2024-03-06T03:07:53;6.47;;;5.35;;
18905;SDS011;9585;51.018;4.282;2024-03-06T03:10:21;5.80;;;5.13;;
18905;SDS011;9585;51.018;4.282;2024-03-06T03:12:51;6.35;;;5.00;;
18905;SDS011;9585;51.018;4.282;2024-03-06T03:15:20;7.72;;;6.10;;
18905;SDS011;9585;51.018;4.282;2024-03-06T03:17:48;6.35;;;5.40;;
18905;SDS011;9585;51.018;4.282;2024-03-06T03:20:15;6.82;;;5.80;;
18905;SDS011;9585;51.018;4.282;2024-03-06T03:22:43;6.07;;;5.25;;
18905;SDS011;9585;51.018;4.282;2024-03-06T03:25:11;7.43;;;6.05;;
18905;SDS011;9585;51.018;4.282;2024-03-06T03:27:39;7.47;;;5.78;;
18905;SDS011;9585;51.018;4.282;2024-03-06T03:30:11;7.05;;;5.90;;
18905;SDS011;9585;51.018;4.282;2024-03-06T03:32:39;6.50;;;5.80;;
18905;SDS011;9585;51.018;4.282;2024-03-06T03:35:07;7.93;;;6.45;;
18905;SDS011;9585;51.018;4.282;2024-03-06T03:37:35;7.20;;;5.70;;
18905;SDS011;9585;51.018;4.282;2024-03-06T03:40:03;8.93;;;6.45;;
18905;SDS011;9585;51.018;4.282;2024-03-06T03:42:32;7.78;;;6.53;;
18905;SDS011;9585;51.018;4.282;2024-03-06T03:45:00;9.30;;;7.10;;
18905;SDS011;9585;51.018;4.282;2024-03-06T03:47:30;8.45;;;6.55;;
18905;SDS011;9585;51.018;4.282;2024-03-06T03:49:58;7.13;;;6.43;;
18905;SDS011;9585;51.018;4.282;2024-03-06T03:52:26;10.43;;;7.22;;
18905;SDS011;9585;51.018;4.282;2024-03-06T03:54:54;6.82;;;5.78;;
18905;SDS011;9585;51.018;4.282;2024-03-06T03:57:21;7.25;;;5.90;;
18905;SDS011;9585;51.018;4.282;2024-03-06T03:59:49;7.72;;;5.90;;
18905;SDS011;9585;51.018;4.282;2024-03-06T04:02:18;6.50;;;5.80;;
18905;SDS011;9585;51.018;4.282;2024-03-06T04:04:47;6.53;;;5.55;;
18905;SDS011;9585;51.018;4.282;2024-03-06T04:07:15;5.55;;;5.00;;
18905;SDS011;9585;51.018;4.282;2024-03-06T04:09:44;4.10;;;3.70;;
18905;SDS011;9585;51.018;4.282;2024-03-06T04:12:13;4.07;;;3.67;;
18905;SDS011;9585;51.018;4.282;2024-03-06T04:14:40;4.10;;;3.70;;
18905;SDS011;9585;51.018;4.282;2024-03-06T04:17:08;3.55;;;3.25;;
18905;SDS011;9585;51.018;4.282;2024-03-06T04:19:36;3.58;;;3.28;;
18905;SDS011;9585;51.018;4.282;2024-03-06T04:22:05;5.32;;;4.30;;
18905;SDS011;9585;51.018;4.282;2024-03-06T04:24:33;4.78;;;4.32;;
18905;SDS011;9585;51.018;4.282;2024-03-06T04:27:01;4.80;;;4.25;;
18905;SDS011;9585;51.018;4.282;2024-03-06T04:29:29;4.50;;;4.10;;
18905;SDS011;9585;51.018;4.282;2024-03-06T04:31:57;5.72;;;5.03;;
18905;SDS011;9585;51.018;4.282;2024-03-06T04:34:25;5.47;;;4.87;;
18905;SDS011;9585;51.018;4.282;2024-03-06T04:36:53;8.07;;;6.63;;
18905;SDS011;9585;51.018;4.282;2024-03-06T04:39:22;7.93;;;6.70;;
18905;SDS011;9585;51.018;4.282;2024-03-06T04:41:49;7.80;;;6.43;;
18905;SDS011;9585;51.018;4.282;2024-03-06T04:44:17;7.35;;;6.22;;
18905;SDS011;9585;51.018;4.282;2024-03-06T04:46:45;10.45;;;8.23;;
18905;SDS011;9585;51.018;4.282;2024-03-06T04:49:13;10.27;;;8.65;;
18905;SDS011;9585;51.018;4.282;2024-03-06T04:51:40;9.45;;;7.60;;
18905;SDS011;9585;51.018;4.282;2024-03-06T04:54:08;8.45;;;6.80;;
18905;SDS011;9585;51.018;4.282;2024-03-06T04:56:37;7.30;;;5.95;;
18905;SDS011;9585;51.018;4.282;2024-03-06T04:59:05;7.47;;;6.68;;
18905;SDS011;9585;51.018;4.282;2024-03-06T05:01:33;7.13;;;6.00;;
18905;SDS011;9585;51.018;4.282;2024-03-06T05:04:01;8.65;;;6.70;;
18905;SDS011;9585;51.018;4.282;2024-03-06T05:06:29;11.10;;;9.13;;
18905;SDS011;9585;51.018;4.282;2024-03-06T05:08:57;10.73;;;8.40;;
18905;SDS011;9585;51.018;4.282;2024-03-06T05:11:24;9.98;;;8.73;;
18905;SDS011;9585;51.018;4.282;2024-03-06T05:13:54;8.80;;;7.53;;
18905;SDS011;9585;51.018;4.282;2024-03-06T05:16:22;8.18;;;6.70;;
18905;SDS011;9585;51.018;4.282;2024-03-06T05:18:49;8.43;;;7.03;;
18905;SDS011;9585;51.018;4.282;2024-03-06T05:21:17;9.13;;;6.88;;
18905;SDS011;9585;51.018;4.282;2024-03-06T05:23:46;8.30;;;7.10;;
18905;SDS011;9585;51.018;4.282;2024-03-06T05:26:14;10.40;;;7.80;;
18905;SDS011;9585;51.018;4.282;2024-03-06T05:28:42;9.05;;;6.68;;
18905;SDS011;9585;51.018;4.282;2024-03-06T05:31:24;9.77;;;7.93;;
18905;SDS011;9585;51.018;4.282;2024-03-06T05:33:52;9.75;;;7.40;;
18905;SDS011;9585;51.018;4.282;2024-03-06T05:36:19;9.38;;;7.10;;
18905;SDS011;9585;51.018;4.282;2024-03-06T05:38:47;8.95;;;7.38;;
18905;SDS011;9585;51.018;4.282;2024-03-06T05:41:15;9.93;;;7.90;;
18905;SDS011;9585;51.018;4.282;2024-03-06T05:43:43;8.52;;;7.25;;
18905;SDS011;9585;51.018;4.282;2024-03-06T05:46:11;9.98;;;8.27;;
18905;SDS011;9585;51.018;4.282;2024-03-06T05:48:40;11.13;;;8.43;;
18905;SDS011;9585;51.018;4.282;2024-03-06T05:51:08;13.15;;;9.65;;
18905;SDS011;9585;51.018;4.282;2024-03-06T05:53:36;15.65;;;11.57;;
18905;SDS011;9585;51.018;4.282;2024-03-06T05:56:06;16.00;;;11.65;;
18905;SDS011;9585;51.018;4.282;2024-03-06T05:58:34;15.88;;;11.88;;
18905;SDS011;9585;51.018;4.282;2024-03-06T06:01:02;15.50;;;11.88;;
18905;SDS011;9585;51.018;4.282;2024-03-06T06:03:30;19.88;;;13.13;;
18905;SDS011;9585;51.018;4.282;2024-03-06T06:05:59;18.23;;;12.95;;
18905;SDS011;9585;51.018;4.282;2024-03-06T06:08:28;18.23;;;12.27;;
18905;SDS011;9585;51.018;4.282;2024-03-06T06:10:55;18.00;;;13.10;;
18905;SDS011;9585;51.018;4.282;2024-03-06T06:13:23;19.27;;;13.57;;
18905;SDS011;9585;51.018;4.282;2024-03-06T06:15:50;17.80;;;14.05;;
18905;SDS011;9585;51.018;4.282;2024-03-06T06:18:18;20.58;;;14.73;;
18905;SDS011;9585;51.018;4.282;2024-03-06T06:20:45;19.00;;;15.13;;
18905;SDS011;9585;51.018;4.282;2024-03-06T06:23:15;21.88;;;15.43;;
18905;SDS011;9585;51.018;4.282;2024-03-06T06:25:42;20.05;;;15.55;;
18905;SDS011;9585;51.018;4.282;2024-03-06T06:28:11;20.75;;;14.75;;
18905;SDS011;9585;51.018;4.282;2024-03-06T06:30:38;18.58;;;14.52;;
18905;SDS011;9585;51.018;4.282;2024-03-06T06:33:06;20.33;;;15.88;;
18905;SDS011;9585;51.018;4.282;2024-03-06T06:35:35;20.27;;;14.65;;
18905;SDS011;9585;51.018;4.282;2024-03-06T06:38:03;21.42;;;14.73;;
18905;SDS011;9585;51.018;4.282;2024-03-06T06:40:32;22.10;;;16.20;;
18905;SDS011;9585;51.018;4.282;2024-03-06T06:43:01;20.50;;;15.48;;
18905;SDS011;9585;51.018;4.282;2024-03-06T06:45:29;23.30;;;16.55;;
18905;SDS011;9585;51.018;4.282;2024-03-06T06:47:56;26.65;;;19.30;;
18905;SDS011;9585;51.018;4.282;2024-03-06T06:50:24;24.35;;;18.70;;
18905;SDS011;9585;51.018;4.282;2024-03-06T06:52:52;23.27;;;17.90;;
18905;SDS011;9585;51.018;4.282;2024-03-06T06:55:20;20.73;;;14.63;;
18905;SDS011;9585;51.018;4.282;2024-03-06T06:57:51;19.83;;;13.57;;
18905;SDS011;9585;51.018;4.282;2024-03-06T07:00:19;14.07;;;11.73;;
18905;SDS011;9585;51.018;4.282;2024-03-06T07:02:48;13.05;;;10.18;;
18905;SDS011;9585;51.018;4.282;2024-03-06T07:05:15;12.63;;;10.25;;
18905;SDS011;9585;51.018;4.282;2024-03-06T07:07:43;12.77;;;10.25;;
18905;SDS011;9585;51.018;4.282;2024-03-06T07:10:11;12.60;;;9.93;;
18905;SDS011;9585;51.018;4.282;2024-03-06T07:12:39;12.57;;;9.07;;
18905;SDS011;9585;51.018;4.282;2024-03-06T07:15:09;9.50;;;8.32;;
18905;SDS011;9585;51.018;4.282;2024-03-06T07:17:37;10.50;;;8.18;;
18905;SDS011;9585;51.018;4.282;2024-03-06T07:20:05;8.23;;;7.40;;
18905;SDS011;9585;51.018;4.282;2024-03-06T07:22:34;7.13;;;6.43;;
18905;SDS011;9585;51.018;4.282;2024-03-06T07:25:01;8.40;;;5.90;;
18905;SDS011;9585;51.018;4.282;2024-03-06T07:27:30;8.50;;;5.88;;
18905;SDS011;9585;51.018;4.282;2024-03-06T07:29:58;7.03;;;6.00;;
18905;SDS011;9585;51.018;4.282;2024-03-06T07:32:27;8.32;;;6.25;;
18905;SDS011;9585;51.018;4.282;2024-03-06T07:34:55;6.72;;;6.05;;
18905;SDS011;9585;51.018;4.282;2024-03-06T07:37:23;7.28;;;6.57;;
18905;SDS011;9585;51.018;4.282;2024-03-06T07:39:51;9.30;;;7.93;;
18905;SDS011;9585;51.018;4.282;2024-03-06T07:42:19;14.32;;;11.98;;
18905;SDS011;9585;51.018;4.282;2024-03-06T07:44:46;8.23;;;7.32;;
18905;SDS011;9585;51.018;4.282;2024-03-06T07:47:14;6.70;;;6.05;;
18905;SDS011;9585;51.018;4.282;2024-03-06T07:49:43;8.60;;;7.63;;
18905;SDS011;9585;51.018;4.282;2024-03-06T07:52:11;13.25;;;9.82;;
18905;SDS011;9585;51.018;4.282;2024-03-06T07:54:39;11.85;;;8.35;;
18905;SDS011;9585;51.018;4.282;2024-03-06T07:57:06;7.68;;;5.85;;
18905;SDS011;9585;51.018;4.282;2024-03-06T07:59:35;5.43;;;4.80;;
18905;SDS011;9585;51.018;4.282;2024-03-06T08:02:05;7.47;;;4.95;;
18905;SDS011;9585;51.018;4.282;2024-03-06T08:04:33;8.07;;;5.10;;
18905;SDS011;9585;51.018;4.282;2024-03-06T08:07:02;5.13;;;4.55;;
18905;SDS011;9585;51.018;4.282;2024-03-06T08:09:30;5.93;;;4.60;;
18905;SDS011;9585;51.018;4.282;2024-03-06T08:11:58;4.05;;;3.65;;
18905;SDS011;9585;51.018;4.282;2024-03-06T08:14:27;5.10;;;4.05;;
18905;SDS011;9585;51.018;4.282;2024-03-06T08:16:54;5.18;;;4.25;;
18905;SDS011;9585;51.018;4.282;2024-03-06T08:19:22;5.00;;;4.30;;
18905;SDS011;9585;51.018;4.282;2024-03-06T08:21:53;4.38;;;3.97;;
18905;SDS011;9585;51.018;4.282;2024-03-06T08:24:22;4.40;;;3.88;;
18905;SDS011;9585;51.018;4.282;2024-03-06T08:26:50;5.15;;;3.67;;
18905;SDS011;9585;51.018;4.282;2024-03-06T08:29:18;5.38;;;3.88;;
18905;SDS011;9585;51.018;4.282;2024-03-06T08:31:46;5.32;;;3.90;;
18905;SDS011;9585;51.018;4.282;2024-03-06T08:34:13;4.50;;;4.00;;
18905;SDS011;9585;51.018;4.282;2024-03-06T08:36:42;4.15;;;3.67;;
18905;SDS011;9585;51.018;4.282;2024-03-06T08:39:10;4.78;;;4.25;;
18905;SDS011;9585;51.018;4.282;2024-03-06T08:41:43;4.78;;;4.15;;
18905;SDS011;9585;51.018;4.282;2024-03-06T08:44:10;5.47;;;4.57;;
18905;SDS011;9585;51.018;4.282;2024-03-06T08:46:38;4.82;;;4.05;;
18905;SDS011;9585;51.018;4.282;2024-03-06T08:49:05;4.63;;;4.22;;
18905;SDS011;9585;51.018;4.282;2024-03-06T08:51:33;5.20;;;4.75;;
18905;SDS011;9585;51.018;4.282;2024-03-06T08:54:00;6.13;;;4.72;;
18905;SDS011;9585;51.018;4.282;2024-03-06T08:56:29;5.35;;;4.85;;
18905;SDS011;9585;51.018;4.282;2024-03-06T08:58:58;6.90;;;4.72;;
18905;SDS011;9585;51.018;4.282;2024-03-06T09:01:27;5.93;;;4.65;;
18905;SDS011;9585;51.018;4.282;2024-03-06T09:03:54;5.40;;;4.88;;
18905;SDS011;9585;51.018;4.282;2024-03-06T09:06:23;6.78;;;5.55;;
18905;SDS011;9585;51.018;4.282;2024-03-06T09:08:51;7.65;;;5.00;;
18905;SDS011;9585;51.018;4.282;2024-03-06T09:11:18;6.90;;;5.68;;
18905;SDS011;9585;51.018;4.282;2024-03-06T09:13:47;6.28;;;5.57;;
18905;SDS011;9585;51.018;4.282;2024-03-06T09:16:17;6.25;;;5.65;;
18905;SDS011;9585;51.018;4.282;2024-03-06T09:18:45;7.13;;;5.85;;
18905;SDS011;9585;51.018;4.282;2024-03-06T09:21:12;6.13;;;5.53;;
18905;SDS011;9585;51.018;4.282;2024-03-06T09:23:40;6.47;;;5.72;;
18905;SDS011;9585;51.018;4.282;2024-03-06T09:26:07;6.97;;;5.75;;
18905;SDS011;9585;51.018;4.282;2024-03-06T09:28:35;6.90;;;5.50;;
18905;SDS011;9585;51.018;4.282;2024-03-06T09:31:04;7.15;;;5.85;;
18905;SDS011;9585;51.018;4.282;2024-03-06T09:33:33;6.75;;;6.00;;
18905;SDS011;9585;51.018;4.282;2024-03-06T09:36:01;6.63;;;5.88;;
18905;SDS011;9585;51.018;4.282;2024-03-06T09:38:29;6.28;;;5.57;;
18905;SDS011;9585;51.018;4.282;2024-03-06T09:40:57;5.93;;;5.43;;
18905;SDS011;9585;51.018;4.282;2024-03-06T09:43:25;6.40;;;5.57;;
18905;SDS011;9585;51.018;4.282;2024-03-06T09:45:52;7.60;;;6.13;;
18905;SDS011;9585;51.018;4.282;2024-03-06T09:48:20;7.07;;;5.72;;
18905;SDS011;9585;51.018;4.282;2024-03-06T09:50:51;6.55;;;5.85;;
18905;SDS011;9585;51.018;4.282;2024-03-06T09:53:20;6.53;;;5.65;;
18905;SDS011;9585;51.018;4.282;2024-03-06T09:55:49;6.50;;;5.63;;
18905;SDS011;9585;51.018;4.282;2024-03-06T09:58:17;5.63;;;4.90;;
18905;SDS011;9585;51.018;4.282;2024-03-06T10:00:46;5.88;;;5.30;;
18905;SDS011;9585;51.018;4.282;2024-03-06T10:03:15;7.20;;;5.85;;
18905;SDS011;9585;51.018;4.282;2024-03-06T10:05:43;5.90;;;5.30;;
18905;SDS011;9585;51.018;4.282;2024-03-06T10:08:13;23.50;;;15.50;;
18905;SDS011;9585;51.018;4.282;2024-03-06T10:10:41;9.55;;;7.43;;
18905;SDS011;9585;51.018;4.282;2024-03-06T10:13:11;6.00;;;5.15;;
18905;SDS011;9585;51.018;4.282;2024-03-06T10:15:38;6.05;;;5.28;;
18905;SDS011;9585;51.018;4.282;2024-03-06T10:18:10;6.35;;;5.28;;
18905;SDS011;9585;51.018;4.282;2024-03-06T10:20:38;6.03;;;4.90;;
18905;SDS011;9585;51.018;4.282;2024-03-06T10:23:08;5.90;;;4.88;;
18905;SDS011;9585;51.018;4.282;2024-03-06T10:25:38;9.95;;;7.68;;
18905;SDS011;9585;51.018;4.282;2024-03-06T10:28:06;6.05;;;4.95;;
18905;SDS011;9585;51.018;4.282;2024-03-06T10:30:35;15.38;;;5.50;;
18905;SDS011;9585;51.018;4.282;2024-03-06T10:33:07;6.82;;;5.45;;
18905;SDS011;9585;51.018;4.282;2024-03-06T10:35:35;5.95;;;5.05;;
18905;SDS011;9585;51.018;4.282;2024-03-06T10:38:04;5.40;;;4.90;;
18905;SDS011;9585;51.018;4.282;2024-03-06T10:40:34;5.43;;;4.70;;
18905;SDS011;9585;51.018;4.282;2024-03-06T10:43:05;5.93;;;4.70;;
18905;SDS011;9585;51.018;4.282;2024-03-06T10:45:37;8.20;;;5.45;;
18905;SDS011;9585;51.018;4.282;2024-03-06T10:48:09;4.78;;;4.22;;
18905;SDS011;9585;51.018;4.282;2024-03-06T10:50:39;5.35;;;4.80;;
18905;SDS011;9585;51.018;4.282;2024-03-06T10:53:09;6.88;;;4.50;;
18905;SDS011;9585;51.018;4.282;2024-03-06T10:55:38;4.57;;;4.13;;
18905;SDS011;9585;51.018;4.282;2024-03-06T10:58:08;5.55;;;4.93;;
18905;SDS011;9585;51.018;4.282;2024-03-06T11:00:36;5.03;;;4.53;;
18905;SDS011;9585;51.018;4.282;2024-03-06T11:03:06;5.18;;;4.53;;
18905;SDS011;9585;51.018;4.282;2024-03-06T11:05:35;5.32;;;4.40;;
18905;SDS011;9585;51.018;4.282;2024-03-06T11:08:04;5.22;;;4.35;;
18905;SDS011;9585;51.018;4.282;2024-03-06T11:10:34;5.55;;;4.80;;
18905;SDS011;9585;51.018;4.282;2024-03-06T11:13:03;6.00;;;4.43;;
18905;SDS011;9585;51.018;4.282;2024-03-06T11:15:37;4.60;;;4.20;;
18905;SDS011;9585;51.018;4.282;2024-03-06T11:26:47;4.45;;;3.50;;
18905;SDS011;9585;51.018;4.282;2024-03-06T11:29:16;6.05;;;4.03;;
18905;SDS011;9585;51.018;4.282;2024-03-06T11:32:06;4.95;;;4.15;;
18905;SDS011;9585;51.018;4.282;2024-03-06T11:34:35;4.28;;;3.88;;
18905;SDS011;9585;51.018;4.282;2024-03-06T11:37:03;4.90;;;4.40;;
18905;SDS011;9585;51.018;4.282;2024-03-06T11:39:33;4.70;;;4.03;;
18905;SDS011;9585;51.018;4.282;2024-03-06T11:42:02;3.63;;;3.33;;
18905;SDS011;9585;51.018;4.282;2024-03-06T11:44:31;4.32;;;3.55;;
18905;SDS011;9585;51.018;4.282;2024-03-06T11:46:59;3.50;;;3.20;;
18905;SDS011;9585;51.018;4.282;2024-03-06T11:49:30;4.05;;;2.85;;
18905;SDS011;9585;51.018;4.282;2024-03-06T11:52:00;3.35;;;2.60;;
18905;SDS011;9585;51.018;4.282;2024-03-06T11:54:30;3.22;;;2.92;;
18905;SDS011;9585;51.018;4.282;2024-03-06T11:56:58;3.65;;;2.50;;
18905;SDS011;9585;51.018;4.282;2024-03-06T11:59:28;3.60;;;2.40;;
18905;SDS011;9585;51.018;4.282;2024-03-06T12:01:57;3.00;;;2.70;;
18905;SDS011;9585;51.018;4.282;2024-03-06T12:04:26;2.78;;;2.55;;
18905;SDS011;9585;51.018;4.282;2024-03-06T12:06:58;3.42;;;2.70;;
18905;SDS011;9585;51.018;4.282;2024-03-06T12:09:26;2.67;;;2.40;;
18905;SDS011;9585;51.018;4.282;2024-03-06T12:11:55;3.10;;;2.28;;
18905;SDS011;9585;51.018;4.282;2024-03-06T12:14:23;3.70;;;2.38;;
18905;SDS011;9585;51.018;4.282;2024-03-06T12:16:57;2.80;;;2.22;;
18905;SDS011;9585;51.018;4.282;2024-03-06T12:19:25;3.25;;;2.38;;
18905;SDS011;9585;51.018;4.282;2024-03-06T12:21:55;3.30;;;2.20;;
18905;SDS011;9585;51.018;4.282;2024-03-06T12:24:27;2.70;;;2.50;;
18905;SDS011;9585;51.018;4.282;2024-03-06T12:26:58;2.58;;;2.20;;
18905;SDS011;9585;51.018;4.282;2024-03-06T12:29:28;2.72;;;2.35;;
18905;SDS011;9585;51.018;4.282;2024-03-06T12:31:57;2.47;;;2.20;;
18905;SDS011;9585;51.018;4.282;2024-03-06T12:34:25;2.97;;;2.13;;
18905;SDS011;9585;51.018;4.282;2024-03-06T12:36:53;3.15;;;2.13;;
18905;SDS011;9585;51.018;4.282;2024-03-06T12:39:23;3.53;;;2.50;;
18905;SDS011;9585;51.018;4.282;2024-03-06T12:41:52;2.65;;;2.20;;
18905;SDS011;9585;51.018;4.282;2024-03-06T12:44:20;2.92;;;2.55;;
18905;SDS011;9585;51.018;4.282;2024-03-06T12:46:47;2.50;;;1.90;;
18905;SDS011;9585;51.018;4.282;2024-03-06T12:49:15;2.63;;;2.13;;
18905;SDS011;9585;51.018;4.282;2024-03-06T12:51:44;2.63;;;2.30;;
18905;SDS011;9585;51.018;4.282;2024-03-06T12:54:11;2.42;;;2.03;;
18905;SDS011;9585;51.018;4.282;2024-03-06T12:56:39;2.60;;;2.10;;
18905;SDS011;9585;51.018;4.282;2024-03-06T12:59:08;2.92;;;2.10;;
18905;SDS011;9585;51.018;4.282;2024-03-06T13:01:36;3.83;;;2.60;;
18905;SDS011;9585;51.018;4.282;2024-03-06T13:04:03;2.65;;;2.40;;
18905;SDS011;9585;51.018;4.282;2024-03-06T13:06:32;3.65;;;2.50;;
18905;SDS011;9585;51.018;4.282;2024-03-06T13:08:59;2.25;;;1.95;;
18905;SDS011;9585;51.018;4.282;2024-03-06T13:11:27;2.25;;;2.05;;
18905;SDS011;9585;51.018;4.282;2024-03-06T13:13:55;4.43;;;2.20;;
18905;SDS011;9585;51.018;4.282;2024-03-06T13:16:24;3.00;;;2.03;;
18905;SDS011;9585;51.018;4.282;2024-03-06T13:18:51;3.17;;;2.33;;
18905;SDS011;9585;51.018;4.282;2024-03-06T13:21:21;3.50;;;2.20;;
18905;SDS011;9585;51.018;4.282;2024-03-06T13:23:49;2.10;;;1.90;;
18905;SDS011;9585;51.018;4.282;2024-03-06T13:26:17;1.95;;;1.73;;
18905;SDS011;9585;51.018;4.282;2024-03-06T13:28:46;2.42;;;1.90;;
18905;SDS011;9585;51.018;4.282;2024-03-06T13:31:13;2.47;;;2.17;;
18905;SDS011;9585;51.018;4.282;2024-03-06T13:33:42;2.80;;;2.10;;
18905;SDS011;9585;51.018;4.282;2024-03-06T13:36:10;3.47;;;2.00;;
18905;SDS011;9585;51.018;4.282;2024-03-06T13:38:37;3.05;;;2.45;;
18905;SDS011;9585;51.018;4.282;2024-03-06T13:41:05;2.60;;;2.40;;
18905;SDS011;9585;51.018;4.282;2024-03-06T13:43:33;3.10;;;2.20;;
18905;SDS011;9585;51.018;4.282;2024-03-06T13:46:01;2.83;;;2.47;;
18905;SDS011;9585;51.018;4.282;2024-03-06T13:48:28;2.72;;;2.10;;
18905;SDS011;9585;51.018;4.282;2024-03-06T13:50:58;3.05;;;2.13;;
18905;SDS011;9585;51.018;4.282;2024-03-06T13:53:25;3.30;;;2.40;;
18905;SDS011;9585;51.018;4.282;2024-03-06T13:55:53;2.85;;;2.38;;
18905;SDS011;9585;51.018;4.282;2024-03-06T13:58:20;2.50;;;2.15;;
18905;SDS011;9585;51.018;4.282;2024-03-06T14:00:48;2.50;;;2.30;;
18905;SDS011;9585;51.018;4.282;2024-03-06T14:03:16;3.40;;;2.10;;
18905;SDS011;9585;51.018;4.282;2024-03-06T14:05:44;2.75;;;2.10;;
18905;SDS011;9585;51.018;4.282;2024-03-06T14:08:14;2.72;;;1.95;;
18905;SDS011;9585;51.018;4.282;2024-03-06T14:10:42;2.22;;;2.03;;
18905;SDS011;9585;51.018;4.282;2024-03-06T14:13:11;2.55;;;2.05;;
18905;SDS011;9585;51.018;4.282;2024-03-06T14:15:38;2.58;;;1.80;;
18905;SDS011;9585;51.018;4.282;2024-03-06T14:18:06;3.05;;;2.22;;
18905;SDS011;9585;51.018;4.282;2024-03-06T14:20:34;2.70;;;1.92;;
18905;SDS011;9585;51.018;4.282;2024-03-06T14:23:06;2.28;;;1.85;;
18905;SDS011;9585;51.018;4.282;2024-03-06T14:25:36;2.05;;;1.67;;
18905;SDS011;9585;51.018;4.282;2024-03-06T14:28:04;2.70;;;1.48;;
18905;SDS011;9585;51.018;4.282;2024-03-06T14:30:31;2.35;;;1.60;;
18905;SDS011;9585;51.018;4.282;2024-03-06T14:32:59;3.08;;;1.63;;
18905;SDS011;9585;51.018;4.282;2024-03-06T14:35:27;2.05;;;1.60;;
18905;SDS011;9585;51.018;4.282;2024-03-06T14:37:54;2.58;;;1.60;;
18905;SDS011;9585;51.018;4.282;2024-03-06T14:40:22;2.22;;;1.95;;
18905;SDS011;9585;51.018;4.282;2024-03-06T14:42:51;2.00;;;1.52;;
18905;SDS011;9585;51.018;4.282;2024-03-06T14:45:20;3.75;;;1.83;;
18905;SDS011;9585;51.018;4.282;2024-03-06T14:47:48;1.92;;;1.58;;
18905;SDS011;9585;51.018;4.282;2024-03-06T14:50:16;2.33;;;1.50;;
18905;SDS011;9585;51.018;4.282;2024-03-06T14:52:44;1.60;;;1.30;;
18905;SDS011;9585;51.018;4.282;2024-03-06T14:55:11;1.88;;;1.20;;
18905;SDS011;9585;51.018;4.282;2024-03-06T14:57:39;2.00;;;1.20;;
18905;SDS011;9585;51.018;4.282;2024-03-06T15:00:09;2.78;;;1.48;;
18905;SDS011;9585;51.018;4.282;2024-03-06T15:02:37;2.65;;;1.40;;
18905;SDS011;9585;51.018;4.282;2024-03-06T15:05:07;1.75;;;1.38;;
18905;SDS011;9585;51.018;4.282;2024-03-06T15:07:37;3.25;;;1.30;;
18905;SDS011;9585;51.018;4.282;2024-03-06T15:10:05;3.15;;;1.83;;
18905;SDS011;9585;51.018;4.282;2024-03-06T15:12:34;1.60;;;1.27;;
18905;SDS011;9585;51.018;4.282;2024-03-06T15:15:03;2.58;;;1.73;;